Time;durP1;ratioP1;P1;durP2;ratioP2;P2;SDS_P1;SDS_P2;PMS_P1;PMS_P2;Temp;Humidity;BMP_temperature;BMP_pressure;BME280_temperature;BME280_humidity;BME280_pressure;Samples;Min_cycle;Max_cycle;Signal;HPM_P1;HPM_P2
2022/12/11 00:01:20;;;;;;;;;;;3.10;86.10;;;;;;5094721;28;19919;-35
2022/12/11 00:03:46;;;;;;;;;;;3.00;86.00;;;;;;5094924;28;19912;-34
2022/12/11 00:06:14;;;;;;;;;;;3.00;86.10;;;;;;5094696;28;19908;-36
2022/12/11 00:08:40;;;;;;;;;;;3.00;86.20;;;;;;5094839;28;19912;-34
2022/12/11 00:11:09;;;;;;;;;;;3.00;86.20;;;;;;5094257;28;20413;-34
2022/12/11 00:13:34;;;;;;;;;;;3.00;86.20;;;;;;5094589;28;19934;-34
2022/12/11 00:16:00;;;;;;;;;;;3.00;86.20;;;;;;5094721;28;19908;-35
2022/12/11 00:18:25;;;;;;;;;;;3.00;86.20;;;;;;5094633;28;20340;-35
2022/12/11 00:20:51;;;;;;;;;;;3.00;86.30;;;;;;5094457;28;19915;-35
2022/12/11 00:23:16;;;;;;;;;;;3.10;86.30;;;;;;5094508;28;19956;-35
2022/12/11 00:25:46;;;;;;;;;;;3.10;86.20;;;;;;5094365;28;19908;-36
2022/12/11 00:28:13;;;;;;;;;;;3.10;86.20;;;;;;5094477;28;19908;-35
2022/12/11 00:30:39;;;;;;;;;;;3.10;86.20;;;;;;5094210;28;19908;-35
2022/12/11 00:33:05;;;;;;;;;;;3.20;86.30;;;;;;5094198;28;19915;-35
2022/12/11 00:35:30;;;;;;;;;;;3.20;86.20;;;;;;5093109;28;19908;-35
2022/12/11 00:37:56;;;;;;;;;;;3.20;86.20;;;;;;5094314;28;19909;-34
2022/12/11 00:40:21;;;;;;;;;;;3.20;86.20;;;;;;5094132;28;19912;-35
2022/12/11 00:42:47;;;;;;;;;;;3.20;86.20;;;;;;5094181;28;19919;-35
2022/12/11 00:45:12;;;;;;;;;;;3.20;86.20;;;;;;5094193;28;19965;-36
2022/12/11 00:47:38;;;;;;;;;;;3.20;86.20;;;;;;5093920;28;20210;-34
2022/12/11 00:50:03;;;;;;;;;;;3.20;86.10;;;;;;5093954;28;19912;-34
2022/12/11 00:52:29;;;;;;;;;;;3.20;86.20;;;;;;5093745;28;20344;-35
2022/12/11 00:54:54;;;;;;;;;;;3.20;86.20;;;;;;5093738;28;19908;-35
2022/12/11 00:57:20;;;;;;;;;;;3.20;86.20;;;;;;5093809;28;19912;-35
2022/12/11 00:59:45;;;;;;;;;;;3.20;86.20;;;;;;5093700;28;20413;-34
2022/12/11 01:02:11;;;;;;;;;;;3.20;86.20;;;;;;5093388;28;20388;-35
2022/12/11 01:04:36;;;;;;;;;;;3.20;86.20;;;;;;5092198;28;19908;-34
2022/12/11 01:07:02;;;;;;;;;;;3.30;86.20;;;;;;5093625;28;19933;-37
2022/12/11 01:12:11;;;;;;;;;;;3.30;86.20;;;;;;5093504;28;19916;-35
2022/12/11 01:14:37;;;;;;;;;;;3.30;86.20;;;;;;5093435;28;19908;-35
2022/12/11 01:17:02;;;;;;;;;;;3.30;86.20;;;;;;5093377;28;19908;-35
2022/12/11 01:19:28;;;;;;;;;;;3.30;86.20;;;;;;5093295;28;20511;-36
2022/12/11 01:21:53;;;;;;;;;;;3.20;86.20;;;;;;5092838;28;20433;-34
2022/12/11 01:24:19;;;;;;;;;;;3.30;86.30;;;;;;5092773;28;19957;-33
2022/12/11 01:26:44;;;;;;;;;;;3.30;86.30;;;;;;5093281;28;19954;-35
2022/12/11 01:29:10;;;;;;;;;;;3.30;86.30;;;;;;5093162;28;19939;-35
2022/12/11 01:31:37;;;;;;;;;;;3.30;86.30;;;;;;5093301;28;19908;-35
2022/12/11 01:34:02;;;;;;;;;;;3.30;86.30;;;;;;5093085;28;19950;-35
2022/12/11 01:36:28;;;;;;;;;;;3.30;86.20;;;;;;5093053;28;19939;-35
2022/12/11 01:38:53;;;;;;;;;;;3.30;86.20;;;;;;5093034;28;19991;-34
2022/12/11 01:41:20;;;;;;;;;;;3.30;86.20;;;;;;5093432;28;20310;-34
2022/12/11 01:43:54;;;;;;;;;;;3.40;86.30;;;;;;5091963;28;20262;-41
2022/12/11 01:46:20;;;;;;;;;;;3.30;86.20;;;;;;5093022;28;20363;-36
2022/12/11 01:48:45;;;;;;;;;;;3.30;86.20;;;;;;5092985;28;19915;-36
2022/12/11 01:51:11;;;;;;;;;;;3.40;86.30;;;;;;5093042;28;20348;-36
2022/12/11 01:53:39;;;;;;;;;;;3.40;86.30;;;;;;5092991;28;19916;-38
2022/12/11 01:56:05;;;;;;;;;;;3.40;86.30;;;;;;5092902;28;20007;-35
2022/12/11 01:58:32;;;;;;;;;;;3.40;86.30;;;;;;5092844;28;19908;-36
2022/12/11 02:00:59;;;;;;;;;;;3.40;86.30;;;;;;5092751;28;20020;-35
2022/12/11 02:03:24;;;;;;;;;;;3.30;86.20;;;;;;5092897;28;19920;-36
2022/12/11 02:05:50;;;;;;;;;;;3.30;86.20;;;;;;5092889;28;19914;-36
2022/12/11 02:08:16;;;;;;;;;;;3.30;86.20;;;;;;5093023;28;19958;-36
2022/12/11 02:11:04;;;;;;;;;;;3.30;86.30;;;;;;5092702;28;19915;-36
2022/12/11 02:13:45;;;;;;;;;;;3.30;86.30;;;;;;5092966;28;20391;-35
2022/12/11 02:16:13;;;;;;;;;;;3.30;86.30;;;;;;5091350;28;19908;-36
2022/12/11 02:18:44;;;;;;;;;;;3.40;86.40;;;;;;5092735;28;19955;-35
2022/12/11 02:21:12;;;;;;;;;;;3.40;86.40;;;;;;5092575;28;20002;-35
2022/12/11 02:23:37;;;;;;;;;;;3.40;86.30;;;;;;5092515;28;20347;-35
2022/12/11 02:26:16;;;;;;;;;;;3.40;86.30;;;;;;5092820;28;20039;-35
2022/12/11 02:28:52;;;;;;;;;;;3.40;86.20;;;;;;5092690;28;20260;-36
2022/12/11 02:31:26;;;;;;;;;;;3.40;86.30;;;;;;5092323;28;19908;-34
2022/12/11 02:34:01;;;;;;;;;;;3.40;86.20;;;;;;5093384;28;19934;-36
2022/12/11 02:36:29;;;;;;;;;;;3.40;86.20;;;;;;5096749;28;20010;-36
2022/12/11 02:38:55;;;;;;;;;;;3.40;86.30;;;;;;5096744;28;19908;-34
2022/12/11 02:41:22;;;;;;;;;;;3.40;86.30;;;;;;5096502;28;19912;-36
2022/12/11 02:43:48;;;;;;;;;;;3.40;86.40;;;;;;5096524;28;20371;-35
2022/12/11 02:46:15;;;;;;;;;;;3.40;86.30;;;;;;5096576;28;20097;-36
2022/12/11 02:48:41;;;;;;;;;;;3.40;86.40;;;;;;5096540;28;19944;-36
2022/12/11 02:51:07;;;;;;;;;;;3.40;86.40;;;;;;5096309;28;19946;-35
2022/12/11 02:53:35;;;;;;;;;;;3.40;86.40;;;;;;5096357;28;19915;-35
2022/12/11 02:56:04;;;;;;;;;;;3.40;86.40;;;;;;5096301;28;20021;-36
2022/12/11 02:58:31;;;;;;;;;;;3.40;86.40;;;;;;5096322;28;19912;-35
2022/12/11 03:00:56;;;;;;;;;;;3.40;86.40;;;;;;5096219;28;19995;-36
2022/12/11 03:03:22;;;;;;;;;;;3.40;86.40;;;;;;5095989;28;20003;-36
2022/12/11 03:05:47;;;;;;;;;;;3.30;86.40;;;;;;5096017;28;20349;-36
2022/12/11 03:08:16;;;;;;;;;;;3.30;86.50;;;;;;5096053;28;19912;-35
2022/12/11 03:10:42;;;;;;;;;;;3.30;86.50;;;;;;5096114;28;20252;-34
2022/12/11 03:13:08;;;;;;;;;;;3.30;86.60;;;;;;5095958;28;19915;-34
2022/12/11 03:15:54;;;;;;;;;;;3.30;86.50;;;;;;5095605;28;20317;-35
2022/12/11 03:18:29;;;;;;;;;;;3.40;86.60;;;;;;5083502;28;19908;-34
2022/12/11 03:21:01;;;;;;;;;;;3.40;86.60;;;;;;5095729;28;19908;-35
2022/12/11 03:23:31;;;;;;;;;;;3.40;86.60;;;;;;5095656;28;19912;-37
2022/12/11 03:26:04;;;;;;;;;;;3.40;86.60;;;;;;5095740;28;19912;-35
2022/12/11 03:28:33;;;;;;;;;;;3.40;86.60;;;;;;5095414;28;20415;-35
2022/12/11 03:31:01;;;;;;;;;;;3.40;86.50;;;;;;5095365;28;19915;-36
2022/12/11 03:33:35;;;;;;;;;;;3.40;86.60;;;;;;5095716;28;19915;-33
2022/12/11 03:36:05;;;;;;;;;;;3.40;86.60;;;;;;5095512;28;19912;-35
2022/12/11 03:38:43;;;;;;;;;;;3.40;86.60;;;;;;5095382;28;19908;-35
2022/12/11 03:41:10;;;;;;;;;;;3.40;86.60;;;;;;5095258;28;20054;-34
2022/12/11 03:43:37;;;;;;;;;;;3.40;86.60;;;;;;5095265;28;20415;-35
2022/12/11 03:46:02;;;;;;;;;;;3.40;86.60;;;;;;5094590;28;20371;-35
2022/12/11 03:48:31;;;;;;;;;;;3.40;86.60;;;;;;5095143;28;19962;-34
2022/12/11 03:50:58;;;;;;;;;;;3.40;86.60;;;;;;5095035;28;19908;-35
2022/12/11 03:53:25;;;;;;;;;;;3.50;86.70;;;;;;5094621;28;19938;-35
2022/12/11 03:55:50;;;;;;;;;;;3.50;86.60;;;;;;5094502;28;19979;-36
2022/12/11 03:58:16;;;;;;;;;;;3.50;86.60;;;;;;5094579;28;19999;-35
2022/12/11 04:00:41;;;;;;;;;;;3.50;86.60;;;;;;5094354;28;19994;-35
2022/12/11 04:03:13;;;;;;;;;;;3.50;86.50;;;;;;5094208;28;19972;-35
2022/12/11 04:05:39;;;;;;;;;;;3.50;86.50;;;;;;5094172;28;20399;-37
2022/12/11 04:08:05;;;;;;;;;;;3.60;86.50;;;;;;5094347;28;20580;-36
2022/12/11 04:10:30;;;;;;;;;;;3.50;86.50;;;;;;5094157;28;19915;-34
2022/12/11 04:12:56;;;;;;;;;;;3.50;86.50;;;;;;5094114;28;19908;-35
2022/12/11 04:15:21;;;;;;;;;;;3.50;86.50;;;;;;5094068;28;19958;-35
2022/12/11 04:26:05;;;;;;;;;;;3.60;86.50;;;;;;5093926;28;19915;-35
2022/12/11 04:28:31;;;;;;;;;;;3.60;86.50;;;;;;5094059;28;19931;-35
2022/12/11 04:30:56;;;;;;;;;;;3.60;86.50;;;;;;5093727;28;19908;-35
2022/12/11 04:33:21;;;;;;;;;;;3.60;86.40;;;;;;5092924;28;19956;-36
2022/12/11 04:35:47;;;;;;;;;;;3.60;86.40;;;;;;5094321;28;19915;-36
2022/12/11 04:38:12;;;;;;;;;;;3.60;86.50;;;;;;5094399;28;19949;-36
2022/12/11 04:40:38;;;;;;;;;;;3.60;86.40;;;;;;5094028;28;20380;-35
2022/12/11 04:43:03;;;;;;;;;;;3.60;86.40;;;;;;5092664;28;19974;-35
2022/12/11 04:45:29;;;;;;;;;;;3.60;86.40;;;;;;5094176;28;19908;-36
2022/12/11 04:47:54;;;;;;;;;;;3.70;86.40;;;;;;5094142;28;19908;-35
2022/12/11 04:50:20;;;;;;;;;;;3.70;86.40;;;;;;5094081;28;19918;-34
2022/12/11 04:52:45;;;;;;;;;;;3.70;86.40;;;;;;5094149;28;19908;-36
2022/12/11 04:55:11;;;;;;;;;;;3.70;86.40;;;;;;5092765;28;19915;-33
2022/12/11 04:57:36;;;;;;;;;;;3.70;86.40;;;;;;5093937;28;19908;-35
2022/12/11 05:00:06;;;;;;;;;;;3.70;86.40;;;;;;5094033;28;19975;-35
2022/12/11 05:02:35;;;;;;;;;;;3.70;86.40;;;;;;5093677;28;19920;-35
2022/12/11 05:05:02;;;;;;;;;;;3.80;86.40;;;;;;5093700;28;19908;-35
2022/12/11 05:07:27;;;;;;;;;;;3.80;86.40;;;;;;5093808;28;19935;-35
2022/12/11 05:09:53;;;;;;;;;;;3.80;86.30;;;;;;5093540;28;20268;-35
2022/12/11 05:12:18;;;;;;;;;;;3.80;86.30;;;;;;5093745;28;20271;-35
2022/12/11 05:14:43;;;;;;;;;;;3.80;86.30;;;;;;5093606;28;19916;-36
2022/12/11 05:17:09;;;;;;;;;;;3.80;86.20;;;;;;5093437;28;19912;-36
2022/12/11 05:19:34;;;;;;;;;;;3.80;86.30;;;;;;5093615;28;20302;-36
2022/12/11 05:22:00;;;;;;;;;;;3.80;86.80;;;;;;5093336;28;19912;-34
2022/12/11 05:24:25;;;;;;;;;;;3.80;86.20;;;;;;5093520;28;19931;-36
2022/12/11 05:26:51;;;;;;;;;;;3.80;86.20;;;;;;5093300;28;19908;-35
2022/12/11 05:29:16;;;;;;;;;;;3.80;86.20;;;;;;5093283;28;20348;-36
2022/12/11 05:31:42;;;;;;;;;;;3.80;86.30;;;;;;5093274;28;19908;-36
2022/12/11 05:34:08;;;;;;;;;;;3.80;86.20;;;;;;5093605;28;19915;-35
2022/12/11 05:36:33;;;;;;;;;;;3.80;86.20;;;;;;5093019;28;19918;-35
2022/12/11 05:38:59;;;;;;;;;;;3.80;86.20;;;;;;5093085;28;19908;-35
2022/12/11 05:41:26;;;;;;;;;;;3.80;86.10;;;;;;5092887;28;20011;-35
2022/12/11 05:43:52;;;;;;;;;;;3.80;86.70;;;;;;5092846;28;19908;-35
2022/12/11 05:46:19;;;;;;;;;;;3.80;86.10;;;;;;5092940;28;19915;-34
2022/12/11 05:48:45;;;;;;;;;;;3.80;86.10;;;;;;5092906;28;20335;-35
2022/12/11 05:51:11;;;;;;;;;;;3.80;86.10;;;;;;5092893;28;19915;-35
2022/12/11 05:53:38;;;;;;;;;;;3.80;86.00;;;;;;5092792;28;19915;-35
2022/12/11 05:56:05;;;;;;;;;;;3.70;85.90;;;;;;5093048;28;19919;-35
2022/12/11 05:58:31;;;;;;;;;;;3.70;85.90;;;;;;5093149;28;19912;-35
2022/12/11 06:00:56;;;;;;;;;;;3.70;86.00;;;;;;5092812;28;20235;-34
2022/12/11 06:03:22;;;;;;;;;;;3.70;85.90;;;;;;5092731;28;19977;-34
2022/12/11 06:05:48;;;;;;;;;;;3.70;85.90;;;;;;5092819;28;19908;-34
2022/12/11 06:08:13;;;;;;;;;;;3.70;85.90;;;;;;5092369;28;19908;-36
2022/12/11 06:10:44;;;;;;;;;;;3.70;85.90;;;;;;5093009;28;20002;-35
2022/12/11 06:13:09;;;;;;;;;;;3.70;85.90;;;;;;5092620;28;19908;-35
2022/12/11 06:15:35;;;;;;;;;;;3.70;85.90;;;;;;5092459;28;19909;-35
2022/12/11 06:18:00;;;;;;;;;;;3.70;85.80;;;;;;5092740;28;19908;-35
2022/12/11 06:20:26;;;;;;;;;;;3.70;85.70;;;;;;5092754;28;19916;-35
2022/12/11 06:22:51;;;;;;;;;;;3.70;85.80;;;;;;5092747;28;20394;-35
2022/12/11 06:25:17;;;;;;;;;;;3.70;85.80;;;;;;5092676;28;19908;-37
2022/12/11 06:27:42;;;;;;;;;;;3.70;85.70;;;;;;5092555;28;19998;-35
2022/12/11 06:30:08;;;;;;;;;;;3.70;85.70;;;;;;5092723;28;19969;-34
2022/12/11 06:32:33;;;;;;;;;;;3.70;85.70;;;;;;5092671;28;19912;-35
2022/12/11 06:34:59;;;;;;;;;;;3.70;85.70;;;;;;5092684;28;19908;-34
2022/12/11 06:37:24;;;;;;;;;;;3.70;85.70;;;;;;5091429;28;19998;-35
2022/12/11 06:39:50;;;;;;;;;;;3.70;85.70;;;;;;5092796;28;19953;-36
2022/12/11 06:42:16;;;;;;;;;;;3.70;85.70;;;;;;5092439;28;19953;-36
2022/12/11 06:44:41;;;;;;;;;;;3.80;85.70;;;;;;5092422;28;20003;-35
2022/12/11 06:47:07;;;;;;;;;;;3.70;85.50;;;;;;5092437;28;19947;-34
2022/12/11 06:49:32;;;;;;;;;;;3.70;85.50;;;;;;5092447;28;19954;-36
2022/12/11 06:51:58;;;;;;;;;;;3.70;85.50;;;;;;5092635;28;19919;-38
2022/12/11 06:54:27;;;;;;;;;;;3.60;85.50;;;;;;5092889;28;19912;-36
2022/12/11 06:56:52;;;;;;;;;;;3.60;85.50;;;;;;5092280;28;20003;-35
2022/12/11 06:59:18;;;;;;;;;;;3.60;85.30;;;;;;5092146;28;19996;-34
2022/12/11 07:01:44;;;;;;;;;;;3.50;85.10;;;;;;5092082;28;19923;-36
2022/12/11 07:04:09;;;;;;;;;;;3.40;85.20;;;;;;5092165;28;19920;-35
2022/12/11 07:06:35;;;;;;;;;;;3.40;85.20;;;;;;5092145;28;19908;-36
2022/12/11 07:09:03;;;;;;;;;;;3.40;85.30;;;;;;5092444;28;19908;-36
2022/12/11 07:11:28;;;;;;;;;;;3.30;85.40;;;;;;5092135;28;19908;-34
2022/12/11 07:13:53;;;;;;;;;;;3.40;85.50;;;;;;5092450;28;19916;-35
2022/12/11 07:16:19;;;;;;;;;;;3.40;85.40;;;;;;5092226;28;20003;-35
2022/12/11 07:18:49;;;;;;;;;;;3.40;85.30;;;;;;5092293;28;19909;-34
2022/12/11 07:21:14;;;;;;;;;;;3.50;85.40;;;;;;5093401;28;20005;-35
2022/12/11 07:23:40;;;;;;;;;;;3.50;85.30;;;;;;5095733;28;20391;-35
2022/12/11 07:26:07;;;;;;;;;;;3.50;85.20;;;;;;5095865;28;19908;-35
2022/12/11 07:28:33;;;;;;;;;;;3.50;85.20;;;;;;5095711;28;19908;-35
2022/12/11 07:30:58;;;;;;;;;;;3.40;85.20;;;;;;5095833;28;19914;-35
2022/12/11 07:33:24;;;;;;;;;;;3.40;85.30;;;;;;5095670;28;20006;-37
2022/12/11 07:35:49;;;;;;;;;;;3.40;85.20;;;;;;5095564;28;19936;-34
2022/12/11 07:38:16;;;;;;;;;;;3.40;85.20;;;;;;5094325;28;19946;-34
2022/12/11 07:40:41;;;;;;;;;;;3.50;85.20;;;;;;5095585;28;20226;-34
2022/12/11 07:43:06;;;;;;;;;;;3.40;85.20;;;;;;5095308;28;19959;-35
2022/12/11 07:45:32;;;;;;;;;;;3.50;85.20;;;;;;5095538;28;20316;-33
2022/12/11 07:47:58;;;;;;;;;;;3.40;85.10;;;;;;5095387;28;19912;-35
2022/12/11 07:50:25;;;;;;;;;;;3.40;85.00;;;;;;5093880;28;20325;-35
2022/12/11 07:52:51;;;;;;;;;;;3.40;85.20;;;;;;5095273;28;19915;-35
2022/12/11 07:55:17;;;;;;;;;;;3.40;85.10;;;;;;5095543;28;19908;-36
2022/12/11 07:57:42;;;;;;;;;;;3.40;85.10;;;;;;5094993;28;20364;-36
2022/12/11 08:00:09;;;;;;;;;;;3.40;85.00;;;;;;5095348;28;19915;-34
2022/12/11 08:02:35;;;;;;;;;;;3.40;85.00;;;;;;5094888;28;20010;-36
2022/12/11 08:05:01;;;;;;;;;;;3.40;85.00;;;;;;5094514;28;20264;-35
2022/12/11 08:07:27;;;;;;;;;;;3.40;85.00;;;;;;5094938;28;19915;-37
2022/12/11 08:09:52;;;;;;;;;;;3.50;85.00;;;;;;5094754;28;20296;-35
2022/12/11 08:12:17;;;;;;;;;;;3.50;84.90;;;;;;5093397;28;19915;-36
2022/12/11 08:14:43;;;;;;;;;;;3.40;84.80;;;;;;5094997;28;19923;-36
2022/12/11 08:17:08;;;;;;;;;;;3.40;84.90;;;;;;5094685;28;19914;-36
2022/12/11 08:19:34;;;;;;;;;;;3.40;84.80;;;;;;5094315;28;19912;-35
2022/12/11 08:21:59;;;;;;;;;;;3.40;84.70;;;;;;5094506;28;19912;-36
2022/12/11 08:24:26;;;;;;;;;;;3.40;84.70;;;;;;5094495;28;19908;-36
2022/12/11 08:26:52;;;;;;;;;;;3.40;84.70;;;;;;5094711;28;20498;-35
2022/12/11 08:29:17;;;;;;;;;;;3.50;84.70;;;;;;5094877;28;19908;-36
2022/12/11 08:31:42;;;;;;;;;;;3.50;84.70;;;;;;5094382;28;20275;-36
2022/12/11 08:34:12;;;;;;;;;;;3.50;84.70;;;;;;5094386;28;19915;-33
2022/12/11 08:36:38;;;;;;;;;;;3.50;84.60;;;;;;5094578;28;19915;-37
2022/12/11 08:39:03;;;;;;;;;;;3.50;84.50;;;;;;5094337;28;19913;-34
2022/12/11 08:41:29;;;;;;;;;;;3.50;84.50;;;;;;5094064;28;19916;-35
2022/12/11 08:43:56;;;;;;;;;;;3.40;84.40;;;;;;5094589;28;19915;-38
2022/12/11 08:46:25;;;;;;;;;;;3.40;84.40;;;;;;5094460;28;19999;-36
2022/12/11 08:48:51;;;;;;;;;;;3.50;84.40;;;;;;5094399;28;20369;-35
2022/12/11 08:51:19;;;;;;;;;;;3.40;84.40;;;;;;5094304;28;19999;-36
2022/12/11 08:53:45;;;;;;;;;;;3.40;84.40;;;;;;5094481;28;19915;-37
2022/12/11 08:56:15;;;;;;;;;;;3.40;84.40;;;;;;5094049;28;20256;-35
2022/12/11 08:58:41;;;;;;;;;;;3.40;84.30;;;;;;5094068;28;19908;-34
2022/12/11 09:01:08;;;;;;;;;;;3.40;84.30;;;;;;5093946;28;20006;-36
2022/12/11 09:03:33;;;;;;;;;;;3.40;84.30;;;;;;5093665;28;20011;-35
2022/12/11 09:05:59;;;;;;;;;;;3.40;84.30;;;;;;5094106;28;19955;-36
2022/12/11 09:08:24;;;;;;;;;;;3.40;84.30;;;;;;5092702;28;19916;-36
2022/12/11 09:10:50;;;;;;;;;;;3.50;84.40;;;;;;5093990;28;19908;-37
2022/12/11 09:13:15;;;;;;;;;;;3.50;84.30;;;;;;5093796;28;19914;-36
2022/12/11 09:15:41;;;;;;;;;;;3.50;84.20;;;;;;5094053;28;19916;-35
2022/12/11 09:18:06;;;;;;;;;;;3.50;84.20;;;;;;5093716;28;19908;-37
2022/12/11 09:20:32;;;;;;;;;;;3.50;84.10;;;;;;5093689;28;19983;-37
2022/12/11 09:22:57;;;;;;;;;;;3.60;84.10;;;;;;5093632;28;19912;-36
2022/12/11 09:25:23;;;;;;;;;;;3.60;84.10;;;;;;5093772;28;20360;-36
2022/12/11 09:27:48;;;;;;;;;;;3.60;84.10;;;;;;5093602;28;19908;-35
2022/12/11 09:30:14;;;;;;;;;;;3.60;84.00;;;;;;5093589;28;19912;-35
2022/12/11 09:32:40;;;;;;;;;;;3.60;84.00;;;;;;5093729;28;19946;-37
2022/12/11 09:35:05;;;;;;;;;;;3.60;84.00;;;;;;5093757;28;20330;-36
2022/12/11 09:37:32;;;;;;;;;;;3.60;84.00;;;;;;5093455;28;19908;-35
2022/12/11 09:39:57;;;;;;;;;;;3.60;84.00;;;;;;5093471;28;20278;-38
2022/12/11 09:42:26;;;;;;;;;;;3.60;84.10;;;;;;5093203;28;19912;-36
2022/12/11 09:44:54;;;;;;;;;;;3.70;84.10;;;;;;5092667;28;19908;-35
2022/12/11 09:47:36;;;;;;;;;;;3.70;84.00;;;;;;5093267;28;19908;-35
2022/12/11 09:50:08;;;;;;;;;;;3.70;83.90;;;;;;5093217;28;20303;-35
2022/12/11 09:52:39;;;;;;;;;;;3.70;83.90;;;;;;5093037;28;19945;-36
2022/12/11 09:55:16;;;;;;;;;;;3.70;83.80;;;;;;5093115;28;20003;-35
2022/12/11 09:57:50;;;;;;;;;;;3.70;83.70;;;;;;5093052;28;20275;-35
2022/12/11 10:00:23;;;;;;;;;;;3.70;83.80;;;;;;5092945;28;19912;-36
2022/12/11 10:03:07;;;;;;;;;;;3.70;83.80;;;;;;5092673;28;19963;-37
2022/12/11 10:05:34;;;;;;;;;;;3.80;83.80;;;;;;5090976;28;20412;-37
2022/12/11 10:08:18;;;;;;;;;;;3.80;83.70;;;;;;5092826;28;19957;-36
2022/12/11 10:10:54;;;;;;;;;;;3.80;83.70;;;;;;5092716;28;19909;-36
2022/12/11 10:13:27;;;;;;;;;;;3.80;83.70;;;;;;5093009;28;19908;-35
2022/12/11 10:16:02;;;;;;;;;;;3.80;83.60;;;;;;5092736;28;19915;-35
2022/12/11 10:18:28;;;;;;;;;;;3.80;83.60;;;;;;5092663;28;20335;-37
2022/12/11 10:20:55;;;;;;;;;;;3.90;83.60;;;;;;5091246;28;20034;-37
2022/12/11 10:23:23;;;;;;;;;;;3.90;83.40;;;;;;5092619;28;19934;-35
2022/12/11 10:25:57;;;;;;;;;;;3.90;83.40;;;;;;5092314;28;19908;-35
2022/12/11 10:28:26;;;;;;;;;;;4.00;83.50;;;;;;5092425;28;19915;-34
2022/12/11 10:31:12;;;;;;;;;;;4.00;83.40;;;;;;5092501;28;19915;-34
2022/12/11 10:33:58;;;;;;;;;;;4.00;83.40;;;;;;5092267;28;19908;-35
2022/12/11 10:36:28;;;;;;;;;;;4.10;83.30;;;;;;5092215;28;19934;-34
2022/12/11 10:38:54;;;;;;;;;;;4.10;83.20;;;;;;5092453;28;19912;-35
2022/12/11 10:41:23;;;;;;;;;;;4.00;83.10;;;;;;5092617;28;19942;-34
2022/12/11 10:43:50;;;;;;;;;;;4.10;83.20;;;;;;5092412;28;19914;-35
2022/12/11 10:46:18;;;;;;;;;;;4.10;83.20;;;;;;5092236;28;20386;-35
2022/12/11 10:48:48;;;;;;;;;;;4.00;83.10;;;;;;5092258;28;20287;-35
2022/12/11 10:51:14;;;;;;;;;;;4.00;83.20;;;;;;5092087;28;19908;-35
2022/12/11 10:53:42;;;;;;;;;;;4.00;83.20;;;;;;5092286;28;20347;-35
2022/12/11 10:56:07;;;;;;;;;;;4.00;83.20;;;;;;5095081;28;19987;-36
2022/12/11 10:58:36;;;;;;;;;;;4.00;83.20;;;;;;5096080;28;19928;-34
2022/12/11 11:01:04;;;;;;;;;;;4.10;83.30;;;;;;5096129;28;19912;-36
2022/12/11 11:03:31;;;;;;;;;;;4.10;83.20;;;;;;5095423;28;20002;-36
2022/12/11 11:06:02;;;;;;;;;;;4.00;83.20;;;;;;5096436;28;20384;-37
2022/12/11 11:08:36;;;;;;;;;;;4.10;83.20;;;;;;5095959;28;20336;-37
2022/12/11 11:11:01;;;;;;;;;;;4.10;83.20;;;;;;5095773;28;19912;-36
2022/12/11 11:13:28;;;;;;;;;;;4.10;83.10;;;;;;5095373;28;20333;-37
2022/12/11 11:16:01;;;;;;;;;;;4.10;83.10;;;;;;5095396;28;20011;-35
2022/12/11 11:18:27;;;;;;;;;;;4.10;83.10;;;;;;5095363;28;20239;-36
2022/12/11 11:20:53;;;;;;;;;;;4.10;83.00;;;;;;5096035;28;19912;-36
2022/12/11 11:23:20;;;;;;;;;;;4.10;83.00;;;;;;5096054;28;19964;-36
2022/12/11 11:25:51;;;;;;;;;;;4.10;83.00;;;;;;5095803;28;19912;-37
2022/12/11 11:28:20;;;;;;;;;;;4.10;83.00;;;;;;5095481;28;19912;-36
2022/12/11 11:30:55;;;;;;;;;;;4.10;83.00;;;;;;5095574;28;20026;-36
2022/12/11 11:33:21;;;;;;;;;;;4.10;83.00;;;;;;5096062;28;20328;-33
2022/12/11 11:36:06;;;;;;;;;;;4.10;83.10;;;;;;5096015;28;19999;-37
2022/12/11 11:38:33;;;;;;;;;;;4.10;83.10;;;;;;5095767;28;19912;-34
2022/12/11 11:41:04;;;;;;;;;;;4.10;83.00;;;;;;5095418;28;19919;-30
2022/12/11 11:43:48;;;;;;;;;;;4.10;83.00;;;;;;5095316;28;19916;-33
2022/12/11 11:46:17;;;;;;;;;;;4.10;83.00;;;;;;5095169;28;19959;-32
2022/12/11 11:49:02;;;;;;;;;;;4.10;83.00;;;;;;5095068;28;19961;-31
2022/12/11 11:51:35;;;;;;;;;;;4.00;82.90;;;;;;5094881;28;19919;-34
2022/12/11 11:54:02;;;;;;;;;;;4.00;82.80;;;;;;5093629;28;20383;-34
2022/12/11 11:56:33;;;;;;;;;;;4.00;82.80;;;;;;5094880;28;19912;-36
2022/12/11 11:59:19;;;;;;;;;;;4.00;83.00;;;;;;5095091;28;19919;-34
2022/12/11 12:01:44;;;;;;;;;;;4.00;83.00;;;;;;5093329;28;19924;-32
2022/12/11 12:04:10;;;;;;;;;;;4.00;83.00;;;;;;5094873;28;20256;-30
2022/12/11 12:06:38;;;;;;;;;;;4.00;83.00;;;;;;5094093;28;20248;-31
2022/12/11 12:09:11;;;;;;;;;;;4.00;83.00;;;;;;5095342;28;20586;-32
2022/12/11 12:11:37;;;;;;;;;;;4.00;83.00;;;;;;5094997;28;19916;-31
2022/12/11 12:14:09;;;;;;;;;;;4.10;82.90;;;;;;5095112;28;19913;-35
2022/12/11 12:16:46;;;;;;;;;;;4.10;82.90;;;;;;5094633;28;19912;-31
2022/12/11 12:19:19;;;;;;;;;;;4.10;82.90;;;;;;5094828;28;19962;-31
2022/12/11 12:21:48;;;;;;;;;;;4.10;82.90;;;;;;5094736;28;19955;-31
2022/12/11 12:24:38;;;;;;;;;;;4.00;82.80;;;;;;5095140;28;20551;-29
2022/12/11 12:27:27;;;;;;;;;;;4.10;82.90;;;;;;5093155;28;20006;-32
2022/12/11 12:30:04;;;;;;;;;;;4.00;82.80;;;;;;5088876;28;20383;-32
2022/12/11 12:32:38;;;;;;;;;;;4.10;82.90;;;;;;5094608;28;19920;-30
2022/12/11 12:35:16;;;;;;;;;;;4.10;82.90;;;;;;5094419;28;19923;-32
2022/12/11 12:37:46;;;;;;;;;;;4.00;82.80;;;;;;5094337;28;20468;-34
2022/12/11 12:40:12;;;;;;;;;;;4.00;82.80;;;;;;5094275;28;20042;-28
2022/12/11 12:42:48;;;;;;;;;;;4.00;82.80;;;;;;5094340;28;19963;-30
2022/12/11 12:45:13;;;;;;;;;;;4.00;82.90;;;;;;5094138;28;19913;-31
2022/12/11 12:47:40;;;;;;;;;;;4.00;82.90;;;;;;5094027;28;19920;-31
2022/12/11 12:50:16;;;;;;;;;;;4.00;82.80;;;;;;5093819;28;19912;-31
2022/12/11 12:52:42;;;;;;;;;;;4.00;82.90;;;;;;5093806;28;19919;-36
2022/12/11 12:55:17;;;;;;;;;;;4.00;82.80;;;;;;5094167;28;19912;-29
2022/12/11 12:57:43;;;;;;;;;;;4.10;82.80;;;;;;5093963;28;19947;-37
2022/12/11 13:00:11;;;;;;;;;;;4.00;82.80;;;;;;5094107;28;19955;-33
2022/12/11 13:02:37;;;;;;;;;;;4.00;82.80;;;;;;5093403;28;20010;-32
2022/12/11 13:05:17;;;;;;;;;;;4.00;82.90;;;;;;5094029;28;20460;-31
2022/12/11 13:07:47;;;;;;;;;;;4.00;83.00;;;;;;5093799;28;19912;-34
2022/12/11 13:10:24;;;;;;;;;;;4.00;82.90;;;;;;5093574;28;19918;-28
2022/12/11 13:12:50;;;;;;;;;;;4.00;83.00;;;;;;5093599;28;20004;-31
2022/12/11 13:15:22;;;;;;;;;;;4.00;83.00;;;;;;5093664;28;19970;-30
2022/12/11 13:17:48;;;;;;;;;;;4.00;83.00;;;;;;5092832;28;19913;-35
2022/12/11 13:20:17;;;;;;;;;;;4.00;82.90;;;;;;5093021;28;19916;-28
2022/12/11 13:22:54;;;;;;;;;;;4.00;82.90;;;;;;5091869;28;19923;-29
2022/12/11 13:25:22;;;;;;;;;;;4.00;83.00;;;;;;5093539;28;19912;-35
2022/12/11 13:27:48;;;;;;;;;;;4.10;83.00;;;;;;5093131;28;19950;-30
2022/12/11 13:30:14;;;;;;;;;;;4.00;83.00;;;;;;5093393;28;19944;-32
2022/12/11 13:32:54;;;;;;;;;;;4.10;82.90;;;;;;5093485;28;20417;-29
2022/12/11 13:35:20;;;;;;;;;;;4.10;83.00;;;;;;5093025;28;19935;-32
2022/12/11 13:37:46;;;;;;;;;;;4.10;83.00;;;;;;5093483;28;19912;-33
2022/12/11 13:40:16;;;;;;;;;;;4.10;83.00;;;;;;5093282;28;19919;-31
2022/12/11 13:42:47;;;;;;;;;;;4.10;82.90;;;;;;5093173;28;20303;-31
2022/12/11 13:45:21;;;;;;;;;;;4.10;82.90;;;;;;5093134;28;19919;-33
2022/12/11 13:47:47;;;;;;;;;;;4.10;82.90;;;;;;5093212;28;19919;-33
2022/12/11 13:50:24;;;;;;;;;;;4.10;82.90;;;;;;5093150;28;19912;-31
2022/12/11 13:52:53;;;;;;;;;;;4.10;83.00;;;;;;5093187;28;20011;-31
2022/12/11 13:55:23;;;;;;;;;;;4.10;83.00;;;;;;5093101;28;19912;-32
2022/12/11 13:57:49;;;;;;;;;;;4.00;83.00;;;;;;5093174;28;19912;-28
2022/12/11 14:00:19;;;;;;;;;;;4.00;83.10;;;;;;5093047;28;19912;-30
2022/12/11 14:02:44;;;;;;;;;;;4.00;83.10;;;;;;5092579;28;19931;-31
2022/12/11 14:05:11;;;;;;;;;;;4.00;83.10;;;;;;5092898;28;19913;-33
2022/12/11 14:07:41;;;;;;;;;;;3.90;83.10;;;;;;5093049;28;19918;-36
2022/12/11 14:10:18;;;;;;;;;;;3.90;83.20;;;;;;5092876;28;19947;-37
2022/12/11 14:13:04;;;;;;;;;;;3.90;83.20;;;;;;5092812;28;19935;-37
2022/12/11 14:15:31;;;;;;;;;;;4.00;83.20;;;;;;5092584;28;20041;-34
2022/12/11 14:17:57;;;;;;;;;;;4.00;83.10;;;;;;5092685;28;19912;-31
2022/12/11 14:20:24;;;;;;;;;;;4.00;83.10;;;;;;5092574;28;19912;-30
2022/12/11 14:22:50;;;;;;;;;;;3.90;83.00;;;;;;5092423;28;19927;-33
2022/12/11 14:25:23;;;;;;;;;;;4.00;83.10;;;;;;5092430;28;19919;-33
2022/12/11 14:27:50;;;;;;;;;;;3.90;83.10;;;;;;5092608;28;19912;-29
2022/12/11 14:30:19;;;;;;;;;;;4.00;83.10;;;;;;5094094;28;19935;-32
2022/12/11 14:32:45;;;;;;;;;;;4.00;83.10;;;;;;5096421;28;19912;-30
2022/12/11 14:35:23;;;;;;;;;;;4.00;83.00;;;;;;5096330;28;20325;-31
2022/12/11 14:37:48;;;;;;;;;;;3.90;83.10;;;;;;5096399;28;20236;-31
2022/12/11 14:40:19;;;;;;;;;;;3.90;83.10;;;;;;5096175;28;19916;-32
2022/12/11 14:42:51;;;;;;;;;;;3.90;83.00;;;;;;5078201;28;19920;-29
2022/12/11 14:45:33;;;;;;;;;;;3.90;83.00;;;;;;5095923;28;19919;-37
2022/12/11 14:47:59;;;;;;;;;;;3.90;83.10;;;;;;5096205;28;19919;-35